Antelope, KS

3:37 AM CDT on August 02, 2014 (GMT -0500)
South Cottonwood Hillsboro (KKSHILLS1) Elev 1388 ft | 38.30 °N, 97.21 °W | Change Station

Current weather conditions updated 1 second ago

Clear
Clear
60.0 °F
Feels Like 60.0 °F
N
0.0
Wind Variable Wind from ESE
Gusts 0.0 mph

Today is forecast to be Cooler than yesterday.

Today
High -- | Low -- °F
--% Chance of Precip.
Yesterday
High -- | Low -- °F
Precip. -- in
6:30 AM 8:36 PM
Waxing Crescent, 33% visible
Pressure 30.12 in
Visibility 10.0 miles
Clouds Clear
Dew Point 56 °F
Humidity 87%
Rainfall 0.00 in
Snow Depth Not available.
UV 0 out of 12
Pollen 7.00 out of 12
Air Quality Not available.
Flu Activity Not available.
METAR KEWK 020755Z AUTO 17004KT 10SM CLR 18/14 A3012 RMK AO1

More Conditions Fewer Conditions

Pressure 30.12 in
Visibility 10.0 miles
Clouds Clear
Dew Point 56 °F
Humidity 87%
Rainfall 0.00 in
Snow Depth Not available.
UV 0 out of 12
Pollen 7.00 out of 12
Air Quality Not available.
Flu Activity Not available.
METAR KEWK 020755Z AUTO 17004KT 10SM CLR 18/14 A3012 RMK AO1

More Conditions Fewer Conditions

10-Day Weather Forecast

Almanac

Astronomy

Aug. 02, 2014 Rise Set
Actual Time 6:30 AM CDT 8:36 PM CDT
Civil Twilight 6:01 AM CDT 9:06 PM CDT
Nautical Twilight 5:25 AM CDT 9:42 PM CDT
Astronomical Twilight 4:46 AM CDT 10:20 PM CDT
Moon 12:48 PM CDT No Moon Set
Length of Visible Light 15h 05m
Length of Day
14h 06m
Tomorrow will be 1m 55s shorter.
Waxing Crescent, 33% of the Moon is Illuminated
Today
Waxing Crescent
Aug 3
First Quarter
Aug 10
Full
Aug 17
Last Quarter
Aug 25
New

Today's Extremes

State Highs State Lows

Community

WunderPhotos

Upload Photos

1,739,844 photos uploaded!

Nearby

Snow Depth

Station Depth Elevation
No new snow has been reported.

Earthquake Activity

City Distance Mag. Time & Date
Medford, Oklahoma 134 miles 2.7 2:39 AM CDT
2014-07-29
Medford, Oklahoma 133 miles 4.3 9:46 PM CDT
2014-07-28
Cherokee, Oklahoma 144 miles 3.0 5:26 PM CDT
2014-07-28
Medford, Oklahoma 126 miles 2.9 3:39 PM CDT
2014-07-27
Minimum magnitude displayed is 2.5.

Coastal Water Temperatures

Place Temperature
No Stations Reporting

Nearby Weather Stations

Station Location Temp. Dew Point Humidity Wind Precip. Elev Updated Type
MesoWest HERNTN , Lost Springs, KS 66 °F - - North  at  - 0.00 in / hr 1381 ft 12:40 AM CDT MADIS
MesoWest DURHAM , Durham, KS 65 °F - - North  at  - 0.00 in / hr 1453 ft 11:40 PM CDT MADIS
South Cottonwood Hillsboro, Hillsboro, KS 60.0 °F 56 °F 87% ESE  at  0.0 mph 0.00 in / hr 1388 ft 3:37 AM CDT Rapid Fire
MesoWest LATIMR , White City, KS 65 °F - - North  at  - 0.00 in / hr 1425 ft 1:40 AM CDT MADIS
RAWS TALLGRASS PRAIRIE KS, Strong City, KS 67 °F 64 °F 89% North  at  4 mph 0.00 in / hr 1230 ft 2:30 AM CDT MADIS

Show More Stations Show Fewer Stations